Time;durP1;ratioP1;P1;durP2;ratioP2;P2;SDS_P1;SDS_P2;PMS_P1;PMS_P2;Temp;Humidity;BMP_temperature;BMP_pressure;BME280_temperature;BME280_humidity;BME280_pressure;Samples;Min_cycle;Max_cycle;Signal;HPM_P1;HPM_P2
2022/11/28 00:01:15;;;;;;;9.50;5.05;;;;;;;8.33;90.31;101023.66;5059116;28;20063;-50
2022/11/28 00:03:40;;;;;;;7.07;5.40;;;;;;;8.33;89.63;101015.97;5059902;28;20031;-50
2022/11/28 00:06:06;;;;;;;10.02;5.35;;;;;;;8.33;90.14;101021.97;5058954;28;20120;-50
2022/11/28 00:08:33;;;;;;;12.13;5.72;;;;;;;8.33;90.55;101018.53;5064071;28;20047;-51
2022/11/28 00:11:02;;;;;;;7.50;4.72;;;;;;;8.36;90.92;101015.22;5062214;28;20461;-50
2022/11/28 00:13:27;;;;;;;6.35;4.60;;;;;;;8.38;90.85;101013.63;5063781;28;20473;-49
2022/11/28 00:16:01;;;;;;;10.73;4.75;;;;;;;8.41;91.27;101003.47;5053547;28;20093;-50
2022/11/28 00:18:27;;;;;;;7.25;4.47;;;;;;;8.39;91.04;101011.13;5057736;28;20039;-51
2022/11/28 00:20:57;;;;;;;8.52;4.75;;;;;;;8.40;91.22;101010.28;5061408;28;20045;-45
2022/11/28 00:23:22;;;;;;;7.90;4.45;;;;;;;8.43;91.42;101006.97;5067817;28;20381;-49
2022/11/28 00:25:59;;;;;;;8.55;4.30;;;;;;;8.47;91.73;101002.03;5069633;28;20033;-49
2022/11/28 00:28:25;;;;;;;6.45;4.20;;;;;;;8.45;91.53;101003.66;5068466;28;20016;-49
2022/11/28 00:30:50;;;;;;;7.07;4.03;;;;;;;8.46;91.16;100995.16;5065977;28;20033;-50
2022/11/28 00:33:16;;;;;;;7.80;4.22;;;;;;;8.47;91.43;101006.28;5068528;28;20038;-51
2022/11/28 00:35:41;;;;;;;6.20;4.20;;;;;;;8.48;91.24;101001.19;5068269;28;20032;-50
2022/11/28 00:38:06;;;;;;;9.27;4.50;;;;;;;8.50;91.34;101002.16;5068297;28;20119;-49
2022/11/28 00:40:32;;;;;;;6.38;4.03;;;;;;;8.50;91.15;101001.28;5069897;28;20038;-49
2022/11/28 00:42:57;;;;;;;6.68;4.30;;;;;;;8.51;91.34;100997.91;5058595;28;20024;-48
2022/11/28 00:45:22;;;;;;;6.70;4.00;;;;;;;8.51;91.47;100993.66;5066129;28;20059;-50
2022/11/28 00:47:48;;;;;;;6.38;4.07;;;;;;;8.54;91.28;100992.88;5058784;28;20041;-50
2022/11/28 00:50:13;;;;;;;7.55;3.83;;;;;;;8.57;91.62;100993.88;5066072;28;20037;-47
2022/11/28 00:52:39;;;;;;;6.97;4.10;;;;;;;8.57;91.45;100991.31;5069699;28;20121;-49
2022/11/28 00:55:04;;;;;;;9.07;3.95;;;;;;;8.57;91.65;100990.44;5062901;28;20087;-49
2022/11/28 00:57:30;;;;;;;5.97;3.88;;;;;;;8.58;92.01;100987.06;5068645;28;20442;-50
2022/11/28 00:59:55;;;;;;;6.50;3.60;;;;;;;8.59;91.63;100992.25;5066284;28;20028;-50
2022/11/28 01:02:20;;;;;;;8.52;3.60;;;;;;;8.61;91.59;100979.47;5066718;28;20158;-49
2022/11/28 01:04:46;;;;;;;5.28;3.42;;;;;;;8.60;91.40;100967.47;5066527;28;20169;-49
2022/11/28 01:07:11;;;;;;;6.25;3.40;;;;;;;8.62;91.48;100972.69;5069133;28;20036;-50
2022/11/28 01:09:36;;;;;;;6.38;3.78;;;;;;;8.63;91.49;100971.88;5066326;28;20354;-48
2022/11/28 01:12:02;;;;;;;4.78;3.30;;;;;;;8.64;91.45;100971.03;5067913;28;20492;-49
2022/11/28 01:14:29;;;;;;;7.70;3.28;;;;;;;8.64;91.66;100973.59;5067201;28;20055;-50
2022/11/28 01:16:54;;;;;;;6.50;3.70;;;;;;;8.64;91.20;100968.47;5061724;28;20692;-48
2022/11/28 01:19:20;;;;;;;7.10;3.67;;;;;;;8.63;91.29;100975.31;5059476;28;20045;-48
2022/11/28 01:21:46;;;;;;;6.13;3.78;;;;;;;8.64;91.21;100979.59;5064563;28;20042;-47
2022/11/28 01:24:15;;;;;;;7.30;3.95;;;;;;;8.66;91.49;100977.09;5059517;28;20117;-49
2022/11/28 01:26:41;;;;;;;5.20;3.60;;;;;;;8.66;91.15;100969.41;5067037;28;20063;-50
2022/11/28 01:29:07;;;;;;;6.72;3.60;;;;;;;8.63;91.19;100980.44;5065940;28;20028;-48
2022/11/28 01:31:32;;;;;;;5.40;3.42;;;;;;;8.66;91.47;100989.91;5065563;28;20511;-50
2022/11/28 01:33:58;;;;;;;5.68;3.88;;;;;;;8.64;91.82;100986.44;5064150;28;20024;-49
2022/11/28 01:36:24;;;;;;;5.82;3.60;;;;;;;8.64;93.15;100986.44;5066649;28;20029;-50
2022/11/28 01:38:50;;;;;;;5.97;3.70;;;;;;;8.63;93.95;100989.81;5060970;28;20493;-50
2022/11/28 01:41:19;;;;;;;5.97;3.60;;;;;;;8.60;94.76;100980.28;5064940;28;20079;-50
2022/11/28 01:44:04;;;;;;;5.68;3.72;;;;;;;8.63;94.80;100990.69;5065675;28;20028;-50
2022/11/28 01:46:30;;;;;;;5.95;3.40;;;;;;;8.56;94.92;100988.72;5063351;28;20052;-49
2022/11/28 01:49:01;;;;;;;6.85;3.80;;;;;;;8.56;95.37;100978.44;5060266;28;20044;-49
2022/11/28 01:51:29;;;;;;;6.75;3.75;;;;;;;8.55;95.44;100977.59;5060407;28;20039;-49
2022/11/28 01:53:54;;;;;;;5.70;3.97;;;;;;;8.56;95.42;100978.44;5060306;28;20039;-50
2022/11/28 01:56:25;;;;;;;5.88;4.03;;;;;;;8.60;95.57;100980.28;5065751;28;20033;-50
2022/11/28 01:58:56;;;;;;;7.03;4.00;;;;;;;8.60;95.43;100975.16;5063885;28;20021;-51
2022/11/28 02:01:23;;;;;;;4.65;3.38;;;;;;;8.58;94.86;100987.06;5062453;28;20036;-49
2022/11/28 02:03:49;;;;;;;6.78;3.50;;;;;;;8.56;94.73;100981.88;5064797;28;20025;-49
2022/11/28 02:06:19;;;;;;;6.07;4.00;;;;;;;8.57;95.08;100975.94;5061364;28;20035;-50
2022/11/28 02:08:44;;;;;;;6.13;3.65;;;;;;;8.55;95.38;100972.47;5065982;28;20548;-50
2022/11/28 02:11:24;;;;;;;5.53;3.35;;;;;;;8.55;96.27;100969.91;5062505;28;20111;-49
2022/11/28 02:14:08;;;;;;;5.65;3.40;;;;;;;8.58;96.23;100969.13;5067088;28;20025;-51
2022/11/28 02:17:07;;;;;;;5.68;3.70;;;;;;;8.59;96.37;100969.16;5066610;28;20582;-49
2022/11/28 02:20:10;;;;;;;5.47;3.65;;;;;;;8.58;96.44;100958.88;5062442;28;20052;-49
2022/11/28 02:23:07;;;;;;;6.47;3.45;;;;;;;8.59;96.60;100958.91;5057428;28;20503;-49
2022/11/28 02:25:51;;;;;;;7.47;3.28;;;;;;;8.57;96.94;100962.25;5066634;28;20445;-48
2022/11/28 02:28:35;;;;;;;6.22;3.53;;;;;;;8.53;96.92;100956.13;5061874;28;20139;-49
2022/11/28 02:31:25;;;;;;;4.40;3.45;;;;;;;8.55;97.36;100957.06;5059752;28;20389;-47
2022/11/28 02:33:54;;;;;;;6.30;3.45;;;;;;;8.49;97.50;100954.28;5063167;28;20028;-48
2022/11/28 02:36:24;;;;;;;8.25;3.63;;;;;;;8.51;97.48;100955.19;5062842;28;20036;-48
2022/11/28 02:38:58;;;;;;;5.07;3.30;;;;;;;8.52;97.24;100949.25;5064071;28;20032;-49
2022/11/28 02:41:51;;;;;;;5.18;3.08;;;;;;;8.55;97.09;100961.31;5063251;28;20484;-50
2022/11/28 02:44:22;;;;;;;4.68;3.60;;;;;;;8.50;97.20;100953.47;5062628;28;20431;-48
2022/11/28 02:47:04;;;;;;;5.30;3.40;;;;;;;8.52;97.58;100956.06;5064767;28;20067;-49
2022/11/28 02:49:53;;;;;;;5.38;3.45;;;;;;;8.56;97.70;100963.94;5064245;28;20472;-50
2022/11/28 02:52:24;;;;;;;5.30;3.20;;;;;;;8.53;97.79;100947.56;5056213;28;20396;-45
2022/11/28 02:54:52;;;;;;;5.35;3.50;;;;;;;8.49;97.69;100948.25;5060689;28;20512;-50
2022/11/28 02:57:17;;;;;;;6.85;3.65;;;;;;;8.50;97.67;100945.78;5059653;28;20457;-49
2022/11/28 02:59:48;;;;;;;5.40;3.40;;;;;;;8.51;97.60;100944.09;5060758;28;20027;-50
2022/11/28 03:02:27;;;;;;;5.45;3.42;;;;;;;8.49;97.59;100941.47;5063182;28;20028;-47
2022/11/28 03:05:06;;;;;;;5.00;3.42;;;;;;;8.46;97.33;100941.34;5060274;28;20033;-48
2022/11/28 03:08:04;;;;;;;5.07;3.33;;;;;;;8.54;97.50;100939.06;5060881;28;20107;-51
2022/11/28 03:11:09;;;;;;;4.88;3.50;;;;;;;8.54;97.43;100939.06;5064834;28;20739;-50
2022/11/28 03:14:00;;;;;;;5.63;3.20;;;;;;;8.52;97.51;100933.88;5025639;28;20499;-50
2022/11/28 03:16:34;;;;;;;4.53;3.28;;;;;;;8.47;97.53;100939.66;5065954;28;20047;-49
2022/11/28 03:19:09;;;;;;;6.25;3.33;;;;;;;8.47;97.50;100937.97;5065525;28;20031;-51
2022/11/28 03:21:37;;;;;;;6.40;2.88;;;;;;;8.43;97.61;100933.53;5062544;28;20036;-49
2022/11/28 03:24:29;;;;;;;5.40;3.22;;;;;;;8.52;97.75;100943.25;5051483;28;20590;-51
2022/11/28 03:27:13;;;;;;;5.47;3.42;;;;;;;8.47;98.15;100942.22;5063279;28;20489;-50
2022/11/28 03:30:12;;;;;;;5.00;3.13;;;;;;;8.49;98.03;100940.56;5057699;28;20473;-47
2022/11/28 03:32:40;;;;;;;5.95;3.35;;;;;;;8.43;98.15;100943.78;5048103;28;20044;-50
2022/11/28 03:35:13;;;;;;;5.68;2.88;;;;;;;8.45;98.06;100942.16;5062507;28;20023;-50
2022/11/28 03:37:45;;;;;;;4.20;2.83;;;;;;;8.43;98.13;100941.22;5061598;28;20102;-49
2022/11/28 03:40:19;;;;;;;5.90;3.20;;;;;;;8.46;98.28;100943.03;5063852;28;20508;-51
2022/11/28 03:42:52;;;;;;;5.63;2.88;;;;;;;8.41;98.46;100932.59;5060146;28;20386;-50
2022/11/28 03:45:24;;;;;;;6.47;2.90;;;;;;;8.42;98.40;100928.34;5064309;28;20032;-46
2022/11/28 03:47:56;;;;;;;4.03;2.80;;;;;;;8.43;98.46;100933.53;5064385;28;20097;-50
2022/11/28 03:50:30;;;;;;;4.40;2.80;;;;;;;8.43;98.66;100935.22;5060462;28;20151;-49
2022/11/28 03:53:04;;;;;;;5.82;3.10;;;;;;;8.45;98.46;100934.47;5057248;28;20033;-48
2022/11/28 03:55:39;;;;;;;3.55;2.90;;;;;;;8.44;98.77;100932.72;5060380;28;20052;-51
2022/11/28 03:58:12;;;;;;;6.53;3.30;;;;;;;8.46;98.59;100935.34;5065812;28;20448;-50
2022/11/28 04:00:48;;;;;;;4.18;2.70;;;;;;;8.47;98.80;100930.28;5060605;28;20027;-49
2022/11/28 04:03:50;;;;;;;4.78;3.17;;;;;;;8.51;98.76;100934.69;5068119;28;20029;-45
2022/11/28 04:06:22;;;;;;;3.55;3.05;;;;;;;8.42;98.72;100936.03;5064837;28;20427;-51
2022/11/28 04:08:56;;;;;;;5.22;3.15;;;;;;;8.44;98.98;100931.84;5069140;28;20056;-48
2022/11/28 04:11:29;;;;;;;4.55;3.00;;;;;;;8.43;99.13;100933.53;5064775;28;20017;-49
2022/11/28 04:14:02;;;;;;;4.85;3.10;;;;;;;8.42;99.17;100939.47;5068246;28;20028;-50
2022/11/28 04:16:39;;;;;;;3.53;3.05;;;;;;;8.48;99.08;100941.38;5064522;28;20399;-50
2022/11/28 04:19:28;;;;;;;5.93;3.15;;;;;;;8.48;99.45;100929.44;5065277;28;20040;-46
2022/11/28 04:22:15;;;;;;;4.20;2.78;;;;;;;8.52;99.19;100933.00;5066031;28;20025;-49
2022/11/28 04:24:45;;;;;;;4.85;3.03;;;;;;;8.48;99.07;100934.56;5060006;28;20051;-54
2022/11/28 04:27:16;;;;;;;4.97;3.25;;;;;;;8.45;99.13;100936.16;5061759;28;20036;-46
2022/11/28 04:29:46;;;;;;;5.00;3.03;;;;;;;8.44;99.35;100937.84;5065971;28;20040;-47
2022/11/28 04:32:13;;;;;;;4.32;2.85;;;;;;;8.42;99.17;100943.72;5067363;28;20366;-50
2022/11/28 04:34:43;;;;;;;4.75;2.90;;;;;;;8.43;99.39;100942.91;5066744;28;20135;-47
2022/11/28 04:37:13;;;;;;;6.75;3.20;;;;;;;8.39;99.43;100934.25;5063830;28;20090;-49
2022/11/28 04:39:42;;;;;;;4.00;2.80;;;;;;;8.42;99.29;100942.03;5059205;28;20040;-51
2022/11/28 04:42:15;;;;;;;4.68;3.13;;;;;;;8.42;99.47;100944.59;5064901;28;20129;-47
2022/11/28 04:44:50;;;;;;;3.50;2.55;;;;;;;8.44;99.55;100939.56;5062388;28;20016;-49
2022/11/28 04:47:16;;;;;;;4.75;3.17;;;;;;;8.43;99.54;100937.78;5068798;28;20022;-48
2022/11/28 04:49:42;;;;;;;4.25;3.20;;;;;;;8.41;99.44;100931.72;5064945;28;20031;-50
2022/11/28 04:52:16;;;;;;;6.25;3.33;;;;;;;8.41;99.50;100935.16;5068764;28;20107;-50
2022/11/28 04:55:00;;;;;;;5.32;3.05;;;;;;;8.47;99.85;100940.50;5064832;28;20035;-46
2022/11/28 04:57:33;;;;;;;5.05;3.30;;;;;;;8.42;99.98;100939.47;5065327;28;20036;-49
2022/11/28 05:00:06;;;;;;;4.47;3.13;;;;;;;8.42;99.92;100939.47;5067362;28;20037;-49
2022/11/28 05:02:33;;;;;;;3.70;2.92;;;;;;;8.41;99.69;100939.41;5068187;28;20125;-47
2022/11/28 05:04:59;;;;;;;5.90;3.10;;;;;;;8.40;99.97;100933.41;5068201;28;20036;-47
2022/11/28 05:07:24;;;;;;;3.67;3.10;;;;;;;8.39;99.93;100943.63;5064815;28;20047;-51
2022/11/28 05:09:50;;;;;;;3.50;2.97;;;;;;;8.41;99.80;100941.97;5065417;28;20481;-50
2022/11/28 05:12:15;;;;;;;3.78;2.95;;;;;;;8.41;99.97;100947.97;5066789;28;20135;-49
2022/11/28 05:14:41;;;;;;;4.63;3.15;;;;;;;8.43;99.70;100948.91;5064460;28;20056;-49
2022/11/28 05:17:07;;;;;;;3.05;2.75;;;;;;;8.46;99.62;100955.84;5068127;28;20040;-50
2022/11/28 05:19:32;;;;;;;3.20;2.90;;;;;;;8.46;99.65;100950.72;5064466;28;20791;-49
2022/11/28 05:21:58;;;;;;;3.78;3.17;;;;;;;8.46;99.62;100951.59;5066406;28;20111;-50
2022/11/28 05:24:24;;;;;;;5.93;3.17;;;;;;;8.43;100.00;100951.47;5066998;28;20055;-49
2022/11/28 05:26:49;;;;;;;4.43;3.17;;;;;;;8.44;100.00;100960.91;5059906;28;20109;-50
2022/11/28 05:29:15;;;;;;;4.05;3.05;;;;;;;8.41;99.96;100953.09;5062122;28;20141;-49
2022/11/28 05:31:41;;;;;;;4.03;3.17;;;;;;;8.45;100.00;100952.41;5065381;28;20486;-50
2022/11/28 05:34:06;;;;;;;5.82;3.63;;;;;;;8.42;100.00;100959.09;5061566;28;20043;-48
2022/11/28 05:36:31;;;;;;;4.03;3.63;;;;;;;8.46;100.00;100961.84;5067668;28;20112;-49
2022/11/28 05:38:57;;;;;;;5.22;3.45;;;;;;;8.45;100.00;100952.41;5065939;28;20485;-50
2022/11/28 05:41:25;;;;;;;3.90;3.50;;;;;;;8.47;100.00;100955.91;5064228;28;20037;-50
2022/11/28 05:43:51;;;;;;;4.73;3.70;;;;;;;8.47;100.00;100960.16;5060790;28;20465;-51
2022/11/28 05:46:17;;;;;;;5.40;3.33;;;;;;;8.50;100.00;100960.28;5063975;28;20109;-48
2022/11/28 05:48:43;;;;;;;3.85;3.45;;;;;;;8.50;100.00;100962.84;5066006;28;20404;-49
2022/11/28 05:51:09;;;;;;;4.68;3.72;;;;;;;8.51;100.00;100962.03;5063977;28;20052;-50
2022/11/28 05:53:34;;;;;;;3.78;3.47;;;;;;;8.47;100.00;100967.84;5066245;28;20043;-50
2022/11/28 05:56:05;;;;;;;4.10;3.45;;;;;;;8.50;100.00;100961.16;5065474;28;20032;-51
2022/11/28 05:58:31;;;;;;;3.90;3.50;;;;;;;8.50;100.00;100961.16;5056482;28;20033;-51
2022/11/28 06:00:56;;;;;;;4.60;4.18;;;;;;;8.51;100.00;100959.47;5061695;28;20086;-50
2022/11/28 06:03:21;;;;;;;5.63;3.60;;;;;;;8.48;100.00;100957.63;5064591;28;20366;-50
2022/11/28 06:05:47;;;;;;;3.95;3.58;;;;;;;8.47;100.00;100958.47;5065693;28;20029;-50
2022/11/28 06:08:13;;;;;;;3.92;3.53;;;;;;;8.51;100.00;100954.34;5065268;28;20035;-51
2022/11/28 06:10:39;;;;;;;4.53;3.80;;;;;;;8.51;100.00;100956.91;5067007;28;20373;-48
2022/11/28 06:13:04;;;;;;;4.05;3.63;;;;;;;8.50;100.00;100961.16;5063945;28;20059;-47
2022/11/28 06:15:31;;;;;;;4.28;3.67;;;;;;;8.51;100.00;100962.03;5066426;28;20039;-47
2022/11/28 06:17:56;;;;;;;4.28;3.67;;;;;;;8.53;100.00;100961.25;5061004;28;20036;-48
2022/11/28 06:20:22;;;;;;;5.07;3.90;;;;;;;8.51;100.00;100962.91;5061615;28;20075;-49
2022/11/28 06:22:47;;;;;;;5.00;4.00;;;;;;;8.51;100.00;100965.47;5063527;28;20101;-50
2022/11/28 06:25:13;;;;;;;4.32;3.55;;;;;;;8.51;100.00;100959.47;5057279;28;20083;-50
2022/11/28 06:27:38;;;;;;;6.50;3.85;;;;;;;8.52;100.00;100964.63;5059789;28;20043;-51
2022/11/28 06:30:05;;;;;;;4.10;3.53;;;;;;;8.52;100.00;100963.75;5064920;28;20037;-49
2022/11/28 06:32:31;;;;;;;4.50;3.75;;;;;;;8.53;100.00;100963.81;5067292;28;20094;-49
2022/11/28 06:34:56;;;;;;;4.40;4.00;;;;;;;8.53;100.00;100968.94;5061645;28;20473;-50
2022/11/28 06:37:21;;;;;;;4.72;3.97;;;;;;;8.57;100.00;100975.94;5065807;28;20040;-49
2022/11/28 06:39:48;;;;;;;6.22;4.05;;;;;;;8.54;100.00;100977.50;5064699;28;20037;-48
2022/11/28 06:42:14;;;;;;;4.43;3.78;;;;;;;8.54;100.00;100980.94;5062352;28;20021;-49
2022/11/28 06:44:40;;;;;;;4.35;3.40;;;;;;;8.52;100.00;100977.44;5065135;28;20443;-49
2022/11/28 06:47:05;;;;;;;5.25;3.63;;;;;;;8.52;100.00;100981.69;5061514;28;20025;-49
2022/11/28 06:49:31;;;;;;;4.30;3.90;;;;;;;8.54;100.00;100980.94;5066351;28;20119;-50
2022/11/28 06:51:56;;;;;;;4.63;4.10;;;;;;;8.55;100.00;100967.34;5064312;28;20062;-49
2022/11/28 06:54:21;;;;;;;5.75;4.03;;;;;;;8.53;100.00;100978.31;5065588;28;20024;-50
2022/11/28 06:56:47;;;;;;;4.90;4.10;;;;;;;8.52;100.00;100967.19;5064947;28;20388;-50
2022/11/28 06:59:12;;;;;;;5.10;4.05;;;;;;;8.57;100.00;100970.81;5059407;28;20130;-47
2022/11/28 07:01:37;;;;;;;4.47;4.07;;;;;;;8.57;100.00;100982.75;5056611;28;20070;-50
2022/11/28 07:04:03;;;;;;;5.00;4.50;;;;;;;8.59;100.00;100976.00;5056814;28;20059;-50
2022/11/28 07:06:28;;;;;;;4.82;4.32;;;;;;;8.58;100.00;100982.81;5061251;28;20035;-48
2022/11/28 07:08:56;;;;;;;5.93;4.78;;;;;;;8.59;100.00;100976.84;5064972;28;20037;-52
2022/11/28 07:11:28;;;;;;;6.25;5.05;;;;;;;8.60;100.00;100972.59;5061526;28;20093;-50
2022/11/28 07:13:54;;;;;;;6.38;5.65;;;;;;;8.57;100.00;100978.50;5060994;28;20024;-50
2022/11/28 07:16:26;;;;;;;6.45;5.40;;;;;;;8.62;100.00;100982.94;5060849;28;20381;-49
2022/11/28 07:18:52;;;;;;;7.20;5.40;;;;;;;8.58;100.00;100995.63;5066937;28;20535;-52
2022/11/28 07:21:18;;;;;;;6.88;5.40;;;;;;;8.60;100.00;100988.84;5060027;28;20098;-47
2022/11/28 07:23:45;;;;;;;7.07;4.78;;;;;;;8.60;100.00;100990.53;5063590;28;20605;-51
2022/11/28 07:26:12;;;;;;;5.80;5.00;;;;;;;8.60;100.00;100993.97;5065401;28;20028;-48
2022/11/28 07:28:38;;;;;;;5.93;4.90;;;;;;;8.59;100.00;100994.81;5068051;28;20085;-50
2022/11/28 07:31:09;;;;;;;5.60;4.75;;;;;;;8.63;100.00;100989.81;5054181;28;21458;-51
2022/11/28 07:33:34;;;;;;;5.30;4.80;;;;;;;8.64;100.00;100986.44;5065790;28;20033;-49
2022/11/28 07:36:01;;;;;;;7.15;4.85;;;;;;;8.61;100.00;100997.41;5059936;28;20520;-49
2022/11/28 07:38:27;;;;;;;5.35;4.85;;;;;;;8.58;100.00;100993.06;5061085;28;20028;-51
2022/11/28 07:40:52;;;;;;;6.00;4.82;;;;;;;8.62;100.00;100998.31;5061525;28;20813;-51
2022/11/28 07:43:17;;;;;;;5.75;5.03;;;;;;;8.59;100.00;100999.06;5061880;28;20025;-51
2022/11/28 07:45:43;;;;;;;6.07;5.00;;;;;;;8.64;100.00;101005.25;5059738;28;20466;-46
2022/11/28 07:48:09;;;;;;;5.82;4.93;;;;;;;8.65;100.00;101016.38;5061562;28;20495;-49
2022/11/28 07:50:36;;;;;;;5.50;5.00;;;;;;;8.64;100.00;101007.81;5063014;28;20025;-49
2022/11/28 07:53:02;;;;;;;6.00;5.38;;;;;;;8.65;100.00;101009.53;5058792;28;20086;-63
2022/11/28 07:55:27;;;;;;;5.70;5.00;;;;;;;8.69;100.00;101010.53;5064001;28;20498;-44
2022/11/28 07:57:52;;;;;;;6.47;5.82;;;;;;;8.66;100.00;101007.84;5062927;28;20057;-47
2022/11/28 08:00:18;;;;;;;6.95;5.00;;;;;;;8.69;100.00;101015.69;5054844;28;20039;-47
2022/11/28 08:02:44;;;;;;;6.45;5.50;;;;;;;8.70;100.00;101022.53;5055873;28;20099;-47
2022/11/28 08:05:11;;;;;;;6.30;5.70;;;;;;;8.69;100.00;101024.22;5059372;28;20127;-50
2022/11/28 08:07:37;;;;;;;6.03;5.43;;;;;;;8.67;100.00;101025.84;5056279;28;20028;-48
2022/11/28 08:10:03;;;;;;;6.05;5.45;;;;;;;8.67;100.00;101024.97;5056559;28;20031;-57
2022/11/28 08:12:28;;;;;;;6.10;5.50;;;;;;;8.67;100.00;101023.28;5058303;28;20107;-51
2022/11/28 08:14:54;;;;;;;7.07;6.03;;;;;;;8.70;100.00;101027.66;5059003;28;20444;-48
2022/11/28 08:17:19;;;;;;;6.35;5.70;;;;;;;8.70;100.00;101027.66;5057607;28;20042;-49
2022/11/28 08:19:44;;;;;;;6.93;5.65;;;;;;;8.69;100.00;101028.50;5062771;28;20056;-49
2022/11/28 08:22:10;;;;;;;6.50;5.57;;;;;;;8.73;100.00;101030.34;5062697;28;20508;-48
2022/11/28 08:24:35;;;;;;;6.57;5.68;;;;;;;8.70;100.00;101032.78;5059055;28;20392;-49
2022/11/28 08:27:00;;;;;;;6.50;5.82;;;;;;;8.70;100.00;101033.66;5064728;28;20445;-50
2022/11/28 08:29:26;;;;;;;5.88;5.22;;;;;;;8.73;100.00;101027.78;5060093;28;20033;-48
2022/11/28 08:31:51;;;;;;;6.68;5.97;;;;;;;8.71;100.00;101030.28;5053294;28;20029;-48
2022/11/28 08:34:16;;;;;;;7.20;5.43;;;;;;;8.78;100.00;101033.94;5058637;28;20037;-50
2022/11/28 08:36:42;;;;;;;6.47;5.68;;;;;;;8.74;100.00;101032.09;5063042;28;20099;-50
2022/11/28 08:39:10;;;;;;;6.45;5.82;;;;;;;8.76;100.00;101036.47;5064361;28;20453;-51
2022/11/28 08:41:35;;;;;;;6.28;5.68;;;;;;;8.76;100.00;101033.03;5068257;28;20024;-50
2022/11/28 08:44:01;;;;;;;6.03;5.43;;;;;;;8.79;100.00;101044.25;5067205;28;20029;-49
2022/11/28 08:46:26;;;;;;;6.70;5.90;;;;;;;8.82;100.00;101040.97;5070126;28;20056;-50
2022/11/28 08:48:51;;;;;;;7.43;6.07;;;;;;;8.79;100.00;101039.13;5063740;28;20033;-49
2022/11/28 08:51:25;;;;;;;7.30;5.85;;;;;;;8.83;100.00;101041.00;5066217;28;20025;-50
2022/11/28 08:53:51;;;;;;;8.48;6.63;;;;;;;8.82;100.00;101040.97;5064735;28;20365;-50
2022/11/28 08:56:16;;;;;;;8.00;6.78;;;;;;;8.82;100.00;101043.53;5060319;28;20040;-50
2022/11/28 08:58:42;;;;;;;9.25;6.70;;;;;;;8.80;100.00;101040.91;5065147;28;20036;-50
2022/11/28 09:01:19;;;;;;;9.77;6.30;;;;;;;8.86;100.00;101037.69;5063034;28;20024;-50
2022/11/28 09:03:45;;;;;;;8.23;6.40;;;;;;;8.84;100.00;101040.19;5059529;28;20067;-52
2022/11/28 09:06:11;;;;;;;9.15;6.50;;;;;;;8.83;100.00;101032.44;5062590;28;20024;-45
2022/11/28 09:08:37;;;;;;;8.73;6.82;;;;;;;8.88;100.00;101038.63;5062746;28;20036;-49
2022/11/28 09:11:06;;;;;;;7.30;6.30;;;;;;;8.90;100.00;101036.09;5063017;28;20028;-53
2022/11/28 09:13:31;;;;;;;10.48;7.00;;;;;;;8.88;100.00;101037.75;5063145;28;20471;-53
2022/11/28 09:15:57;;;;;;;10.00;7.50;;;;;;;8.90;100.00;101041.25;5064286;28;20035;-52
2022/11/28 09:18:22;;;;;;;10.35;8.05;;;;;;;8.90;100.00;101036.09;5065838;28;20059;-50
2022/11/28 09:20:48;;;;;;;11.77;7.88;;;;;;;8.92;100.00;101043.06;5064948;28;20128;-49
2022/11/28 09:23:13;;;;;;;11.88;8.23;;;;;;;8.93;100.00;101046.50;5066618;28;20041;-47
2022/11/28 09:25:39;;;;;;;9.88;7.88;;;;;;;8.96;100.00;101051.72;5064261;28;20036;-53
2022/11/28 09:28:05;;;;;;;9.48;7.55;;;;;;;8.96;100.00;101056.84;5063439;28;20032;-50
2022/11/28 09:30:31;;;;;;;10.30;8.00;;;;;;;8.97;100.00;101054.34;5064348;28;20074;-53
2022/11/28 09:32:56;;;;;;;10.70;8.07;;;;;;;8.95;100.00;101055.13;5058266;28;20427;-50
2022/11/28 09:35:22;;;;;;;11.05;8.30;;;;;;;8.97;100.00;101058.59;5065205;28;20024;-55
2022/11/28 09:37:47;;;;;;;9.80;7.65;;;;;;;8.96;100.00;101065.41;5061669;28;20036;-54
2022/11/28 09:40:37;;;;;;;9.90;7.82;;;;;;;8.98;100.00;101050.97;5062389;28;20060;-54
2022/11/28 09:43:17;;;;;;;10.18;7.90;;;;;;;9.00;100.00;101054.47;5060976;28;20127;-50
2022/11/28 09:45:47;;;;;;;8.88;6.95;;;;;;;8.98;100.00;101058.69;5062199;28;20074;-53
2022/11/28 09:48:22;;;;;;;10.20;7.50;;;;;;;9.01;100.00;101061.34;5062327;28;20036;-53
2022/11/28 09:50:53;;;;;;;9.65;7.30;;;;;;;9.01;100.00;101061.34;5060197;28;20033;-51
2022/11/28 09:53:36;;;;;;;11.57;7.85;;;;;;;9.05;100.00;101063.22;5062156;28;20155;-50
2022/11/28 09:56:15;;;;;;;9.55;7.35;;;;;;;9.06;100.00;101061.53;5075891;28;20105;-53
2022/11/28 09:58:54;;;;;;;8.85;7.30;;;;;;;9.09;100.00;101069.31;5061241;28;20033;-54
2022/11/28 10:01:26;;;;;;;8.77;6.88;;;;;;;9.07;100.00;101066.69;5063201;28;20025;-55
2022/11/28 10:03:55;;;;;;;8.38;6.72;;;;;;;9.10;100.00;101061.69;5064142;28;20055;-56
2022/11/28 10:06:35;;;;;;;10.32;6.85;;;;;;;9.12;100.00;101064.31;5061280;28;20074;-55
2022/11/28 10:09:26;;;;;;;8.38;7.00;;;;;;;9.16;100.00;101060.16;5061877;28;20544;-49
2022/11/28 10:12:10;;;;;;;8.38;6.90;;;;;;;9.16;100.00;101067.84;5059474;28;20067;-56
2022/11/28 10:15:09;;;;;;;7.60;6.80;;;;;;;9.17;100.00;101062.78;5064050;28;20029;-53
2022/11/28 10:17:55;;;;;;;8.00;7.03;;;;;;;9.17;100.00;101062.78;5056540;28;20103;-49
2022/11/28 10:20:30;;;;;;;9.43;6.68;;;;;;;9.17;100.00;101062.78;5062748;28;20045;-49
2022/11/28 10:23:11;;;;;;;9.63;7.43;;;;;;;9.15;100.00;101054.16;5063157;28;20066;-50
2022/11/28 10:25:48;;;;;;;7.97;7.03;;;;;;;9.18;100.00;101063.66;5061099;28;20546;-54
2022/11/28 10:28:20;;;;;;;9.63;7.32;;;;;;;9.18;100.00;101059.41;5063005;28;20024;-54
2022/11/28 10:30:52;;;;;;;10.20;7.75;;;;;;;9.21;100.00;101062.06;5064325;28;20031;-57
2022/11/28 10:33:30;;;;;;;10.02;8.27;;;;;;;9.22;100.00;101061.28;5063222;28;20438;-51
2022/11/28 10:35:58;;;;;;;10.25;8.05;;;;;;;9.22;100.00;101065.50;5060861;28;20155;-48
2022/11/28 10:38:26;;;;;;;10.43;8.57;;;;;;;9.21;100.00;101056.94;5061310;28;20067;-48
2022/11/28 10:40:59;;;;;;;10.40;8.52;;;;;;;9.25;100.00;101057.94;5064681;28;20074;-52
2022/11/28 10:43:50;;;;;;;13.73;9.80;;;;;;;9.30;100.00;101064.13;5061286;28;21572;-51
2022/11/28 10:46:40;;;;;;;13.63;9.10;;;;;;;9.31;100.00;101060.72;5059576;28;20516;-49
2022/11/28 10:49:32;;;;;;;11.25;9.40;;;;;;;9.32;100.00;101065.91;5062343;28;20035;-47
2022/11/28 10:52:32;;;;;;;10.75;9.52;;;;;;;9.34;100.00;101061.72;5060618;28;20039;-47
2022/11/28 10:55:36;;;;;;;13.20;10.18;;;;;;;9.34;100.00;101072.00;5060865;28;20485;-49
2022/11/28 10:58:31;;;;;;;12.77;10.65;;;;;;;9.38;100.00;101078.09;5059873;28;20039;-49
2022/11/28 11:00:59;;;;;;;12.75;10.48;;;;;;;9.33;100.00;101067.66;5061274;28;20105;-50
2022/11/28 11:03:31;;;;;;;14.65;10.60;;;;;;;9.34;100.00;101066.84;5060881;28;20551;-48
2022/11/28 11:05:57;;;;;;;13.25;10.60;;;;;;;9.34;100.00;101074.56;5059728;28;20420;-51
2022/11/28 11:08:28;;;;;;;14.52;11.43;;;;;;;9.36;100.00;101074.59;5062667;28;20044;-51
2022/11/28 11:11:26;;;;;;;14.98;11.93;;;;;;;9.43;100.00;101080.81;5062969;28;20046;-51
2022/11/28 11:14:03;;;;;;;17.42;11.90;;;;;;;9.44;100.00;101078.31;5057245;28;20501;-50
2022/11/28 11:16:52;;;;;;;16.58;12.38;;;;;;;9.45;100.00;101067.22;5060656;28;20032;-51
2022/11/28 11:19:32;;;;;;;15.77;12.50;;;;;;;9.43;100.00;101061.16;5056593;28;20025;-45
2022/11/28 11:21:59;;;;;;;15.30;11.85;;;;;;;9.40;100.00;101067.06;5062330;28;20032;-49
2022/11/28 11:24:25;;;;;;;16.95;12.45;;;;;;;9.39;100.00;101064.44;5057367;28;20028;-46
2022/11/28 11:26:50;;;;;;;19.33;14.18;;;;;;;9.42;100.00;101063.69;5059596;28;20090;-47
2022/11/28 11:29:29;;;;;;;18.98;14.90;;;;;;;9.47;100.00;101057.91;5062413;28;20463;-50
2022/11/28 11:32:02;;;;;;;22.25;16.42;;;;;;;9.44;100.00;101065.47;5061522;28;20036;-51
2022/11/28 11:34:31;;;;;;;20.10;15.18;;;;;;;9.47;100.00;101070.72;5062470;28;20073;-51
2022/11/28 11:37:16;;;;;;;;;;;;;;;9.60;100.00;101074.59;5061749;28;20042;-50
2022/11/28 11:39:52;;;;;;;23.27;15.93;;;;;;;9.53;100.00;101070.09;5060657;28;19912;-47
2022/11/28 11:42:32;;;;;;;23.65;17.15;;;;;;;9.55;100.00;101073.56;5058677;28;20498;-51
2022/11/28 11:45:24;;;;;;;25.25;18.00;;;;;;;9.58;100.00;101073.66;5057004;28;20017;-48